sensor_id;sensor_type;location;lat;lon;timestamp;temperature;humidity
64561;DHT22;50960;46.838;16.838;2024-01-30T00:00:42;0.70;99.90
64561;DHT22;50960;46.838;16.838;2024-01-30T00:03:09;0.70;99.90
64561;DHT22;50960;46.838;16.838;2024-01-30T00:05:35;0.70;99.90
64561;DHT22;50960;46.838;16.838;2024-01-30T00:08:01;0.70;99.90
64561;DHT22;50960;46.838;16.838;2024-01-30T00:10:27;0.70;99.90
64561;DHT22;50960;46.838;16.838;2024-01-30T00:12:54;0.70;99.90
64561;DHT22;50960;46.838;16.838;2024-01-30T00:15:20;0.80;99.90
64561;DHT22;50960;46.838;16.838;2024-01-30T00:17:47;0.80;99.90
64561;DHT22;50960;46.838;16.838;2024-01-30T00:20:13;0.70;99.90
64561;DHT22;50960;46.838;16.838;2024-01-30T00:22:40;0.70;99.90
64561;DHT22;50960;46.838;16.838;2024-01-30T00:25:06;0.70;99.90
64561;DHT22;50960;46.838;16.838;2024-01-30T00:27:32;0.70;99.90
64561;DHT22;50960;46.838;16.838;2024-01-30T00:29:59;0.70;99.90
64561;DHT22;50960;46.838;16.838;2024-01-30T00:32:25;0.50;99.90
64561;DHT22;50960;46.838;16.838;2024-01-30T00:34:51;0.40;99.90
64561;DHT22;50960;46.838;16.838;2024-01-30T00:37:18;0.50;99.90
64561;DHT22;50960;46.838;16.838;2024-01-30T00:39:44;0.60;99.90
64561;DHT22;50960;46.838;16.838;2024-01-30T00:42:10;0.50;99.90
64561;DHT22;50960;46.838;16.838;2024-01-30T00:44:37;0.50;99.90
64561;DHT22;50960;46.838;16.838;2024-01-30T00:47:05;0.50;99.90
64561;DHT22;50960;46.838;16.838;2024-01-30T00:49:31;0.50;99.90
64561;DHT22;50960;46.838;16.838;2024-01-30T00:51:58;0.60;99.90
64561;DHT22;50960;46.838;16.838;2024-01-30T00:54:24;0.60;99.90
64561;DHT22;50960;46.838;16.838;2024-01-30T00:56:50;0.60;99.90
64561;DHT22;50960;46.838;16.838;2024-01-30T00:59:16;0.60;99.90
64561;DHT22;50960;46.838;16.838;2024-01-30T01:01:43;0.60;99.90
64561;DHT22;50960;46.838;16.838;2024-01-30T01:04:09;0.70;99.90
64561;DHT22;50960;46.838;16.838;2024-01-30T01:06:35;0.60;99.90
64561;DHT22;50960;46.838;16.838;2024-01-30T01:09:01;0.60;99.90
64561;DHT22;50960;46.838;16.838;2024-01-30T01:11:29;0.60;99.90
64561;DHT22;50960;46.838;16.838;2024-01-30T01:13:55;0.70;99.90
64561;DHT22;50960;46.838;16.838;2024-01-30T01:16:22;0.60;99.90
64561;DHT22;50960;46.838;16.838;2024-01-30T01:18:48;0.50;99.90
64561;DHT22;50960;46.838;16.838;2024-01-30T01:21:14;0.50;99.90
64561;DHT22;50960;46.838;16.838;2024-01-30T01:23:40;0.60;99.90
64561;DHT22;50960;46.838;16.838;2024-01-30T01:26:08;0.60;99.90
64561;DHT22;50960;46.838;16.838;2024-01-30T01:28:35;0.50;99.90
64561;DHT22;50960;46.838;16.838;2024-01-30T01:31:02;0.50;99.90
64561;DHT22;50960;46.838;16.838;2024-01-30T01:33:32;0.60;99.90
64561;DHT22;50960;46.838;16.838;2024-01-30T01:36:00;0.60;99.90
64561;DHT22;50960;46.838;16.838;2024-01-30T01:38:28;0.60;99.90
64561;DHT22;50960;46.838;16.838;2024-01-30T01:40:55;0.60;99.90
64561;DHT22;50960;46.838;16.838;2024-01-30T01:43:21;0.50;99.90
64561;DHT22;50960;46.838;16.838;2024-01-30T01:45:48;0.50;99.90
64561;DHT22;50960;46.838;16.838;2024-01-30T01:48:14;0.50;99.90
64561;DHT22;50960;46.838;16.838;2024-01-30T01:50:42;0.50;99.90
64561;DHT22;50960;46.838;16.838;2024-01-30T01:53:08;0.50;99.90
64561;DHT22;50960;46.838;16.838;2024-01-30T01:55:35;0.50;99.90
64561;DHT22;50960;46.838;16.838;2024-01-30T01:58:02;0.50;99.90
64561;DHT22;50960;46.838;16.838;2024-01-30T02:00:28;0.50;99.90
64561;DHT22;50960;46.838;16.838;2024-01-30T02:02:55;0.50;99.90
64561;DHT22;50960;46.838;16.838;2024-01-30T02:05:22;0.50;99.90
64561;DHT22;50960;46.838;16.838;2024-01-30T02:07:50;0.40;99.90
64561;DHT22;50960;46.838;16.838;2024-01-30T02:10:17;0.30;99.90
64561;DHT22;50960;46.838;16.838;2024-01-30T02:12:43;0.20;99.90
64561;DHT22;50960;46.838;16.838;2024-01-30T02:15:13;0.20;99.90
64561;DHT22;50960;46.838;16.838;2024-01-30T02:17:39;0.30;99.90
64561;DHT22;50960;46.838;16.838;2024-01-30T02:20:06;0.30;99.90
64561;DHT22;50960;46.838;16.838;2024-01-30T02:22:34;0.30;99.90
64561;DHT22;50960;46.838;16.838;2024-01-30T02:25:01;0.40;99.90
64561;DHT22;50960;46.838;16.838;2024-01-30T02:27:27;0.30;99.90
64561;DHT22;50960;46.838;16.838;2024-01-30T02:29:54;0.30;99.90
64561;DHT22;50960;46.838;16.838;2024-01-30T02:32:20;0.20;99.90
64561;DHT22;50960;46.838;16.838;2024-01-30T02:34:46;0.20;99.90
64561;DHT22;50960;46.838;16.838;2024-01-30T02:37:12;0.10;99.90
64561;DHT22;50960;46.838;16.838;2024-01-30T02:39:39;0.20;99.90
64561;DHT22;50960;46.838;16.838;2024-01-30T02:42:08;0.20;99.90
64561;DHT22;50960;46.838;16.838;2024-01-30T02:44:34;0.20;99.90
64561;DHT22;50960;46.838;16.838;2024-01-30T02:47:00;0.20;99.90
64561;DHT22;50960;46.838;16.838;2024-01-30T02:49:27;0.20;99.90
64561;DHT22;50960;46.838;16.838;2024-01-30T02:51:54;0.20;99.90
64561;DHT22;50960;46.838;16.838;2024-01-30T02:54:21;0.20;99.90
64561;DHT22;50960;46.838;16.838;2024-01-30T02:56:47;0.20;99.90
64561;DHT22;50960;46.838;16.838;2024-01-30T02:59:14;0.10;99.90
64561;DHT22;50960;46.838;16.838;2024-01-30T03:01:44;0.20;99.90
64561;DHT22;50960;46.838;16.838;2024-01-30T03:04:10;0.20;99.90
64561;DHT22;50960;46.838;16.838;2024-01-30T03:06:37;0.20;99.90
64561;DHT22;50960;46.838;16.838;2024-01-30T03:09:03;0.20;99.90
64561;DHT22;50960;46.838;16.838;2024-01-30T03:11:31;0.10;99.90
64561;DHT22;50960;46.838;16.838;2024-01-30T03:13:57;0.20;99.90
64561;DHT22;50960;46.838;16.838;2024-01-30T03:16:23;0.20;99.90
64561;DHT22;50960;46.838;16.838;2024-01-30T03:18:50;0.20;99.90
64561;DHT22;50960;46.838;16.838;2024-01-30T03:21:16;0.10;99.90
64561;DHT22;50960;46.838;16.838;2024-01-30T03:23:43;0.20;99.90
64561;DHT22;50960;46.838;16.838;2024-01-30T03:26:09;0.10;99.90
64561;DHT22;50960;46.838;16.838;2024-01-30T03:28:37;0.10;99.90
64561;DHT22;50960;46.838;16.838;2024-01-30T03:31:03;0.10;99.90
64561;DHT22;50960;46.838;16.838;2024-01-30T03:33:29;0.10;99.90
64561;DHT22;50960;46.838;16.838;2024-01-30T03:35:56;0.10;99.90
64561;DHT22;50960;46.838;16.838;2024-01-30T03:38:22;0.10;99.90
64561;DHT22;50960;46.838;16.838;2024-01-30T03:40:48;0.10;99.90
64561;DHT22;50960;46.838;16.838;2024-01-30T03:43:14;0.00;99.90
64561;DHT22;50960;46.838;16.838;2024-01-30T03:45:42;0.00;99.90
64561;DHT22;50960;46.838;16.838;2024-01-30T03:48:08;-0.10;99.90
64561;DHT22;50960;46.838;16.838;2024-01-30T03:50:34;-0.10;99.90
64561;DHT22;50960;46.838;16.838;2024-01-30T03:53:00;-0.10;99.90
64561;DHT22;50960;46.838;16.838;2024-01-30T03:55:27;-0.10;99.90
64561;DHT22;50960;46.838;16.838;2024-01-30T03:57:53;-0.10;99.90
64561;DHT22;50960;46.838;16.838;2024-01-30T04:00:19;0.00;99.90
64561;DHT22;50960;46.838;16.838;2024-01-30T04:02:45;-0.20;99.90
64561;DHT22;50960;46.838;16.838;2024-01-30T04:05:12;-0.20;99.90
64561;DHT22;50960;46.838;16.838;2024-01-30T04:07:38;-0.20;99.90
64561;DHT22;50960;46.838;16.838;2024-01-30T04:10:05;-0.20;99.90
64561;DHT22;50960;46.838;16.838;2024-01-30T04:12:32;-0.30;99.90
64561;DHT22;50960;46.838;16.838;2024-01-30T04:14:58;-0.20;99.90
64561;DHT22;50960;46.838;16.838;2024-01-30T04:17:25;-0.20;99.90
64561;DHT22;50960;46.838;16.838;2024-01-30T04:19:51;-0.20;99.90
64561;DHT22;50960;46.838;16.838;2024-01-30T04:22:17;-0.20;99.90
64561;DHT22;50960;46.838;16.838;2024-01-30T04:24:43;-0.30;99.90
64561;DHT22;50960;46.838;16.838;2024-01-30T04:27:10;-0.30;99.90
64561;DHT22;50960;46.838;16.838;2024-01-30T04:29:36;-0.20;99.90
64561;DHT22;50960;46.838;16.838;2024-01-30T04:32:03;-0.20;99.90
64561;DHT22;50960;46.838;16.838;2024-01-30T04:34:29;-0.20;99.90
64561;DHT22;50960;46.838;16.838;2024-01-30T04:36:56;-0.30;99.90
64561;DHT22;50960;46.838;16.838;2024-01-30T04:39:22;-0.30;99.90
64561;DHT22;50960;46.838;16.838;2024-01-30T04:41:49;-0.30;99.90
64561;DHT22;50960;46.838;16.838;2024-01-30T04:44:15;-0.30;99.90
64561;DHT22;50960;46.838;16.838;2024-01-30T04:46:41;-0.30;99.90
64561;DHT22;50960;46.838;16.838;2024-01-30T04:49:08;-0.30;99.90
64561;DHT22;50960;46.838;16.838;2024-01-30T04:51:34;-0.30;99.90
64561;DHT22;50960;46.838;16.838;2024-01-30T04:54:01;-0.20;99.90
64561;DHT22;50960;46.838;16.838;2024-01-30T04:56:27;-0.20;99.90
64561;DHT22;50960;46.838;16.838;2024-01-30T04:58:53;-0.20;99.90
64561;DHT22;50960;46.838;16.838;2024-01-30T05:01:20;-0.20;99.90
64561;DHT22;50960;46.838;16.838;2024-01-30T05:03:46;-0.20;99.90
64561;DHT22;50960;46.838;16.838;2024-01-30T05:06:12;-0.20;99.90
64561;DHT22;50960;46.838;16.838;2024-01-30T05:08:38;-0.20;99.90
64561;DHT22;50960;46.838;16.838;2024-01-30T05:11:07;0.00;99.90
64561;DHT22;50960;46.838;16.838;2024-01-30T05:13:34;-0.10;99.90
64561;DHT22;50960;46.838;16.838;2024-01-30T05:16:02;0.00;99.90
64561;DHT22;50960;46.838;16.838;2024-01-30T05:18:29;-0.10;99.90
64561;DHT22;50960;46.838;16.838;2024-01-30T05:20:56;0.00;99.90
64561;DHT22;50960;46.838;16.838;2024-01-30T05:23:22;0.00;99.90
64561;DHT22;50960;46.838;16.838;2024-01-30T05:25:48;0.00;99.90
64561;DHT22;50960;46.838;16.838;2024-01-30T05:28:14;0.10;99.90
64561;DHT22;50960;46.838;16.838;2024-01-30T05:30:41;0.00;99.90
64561;DHT22;50960;46.838;16.838;2024-01-30T05:33:07;0.00;99.90
64561;DHT22;50960;46.838;16.838;2024-01-30T05:35:33;0.00;99.90
64561;DHT22;50960;46.838;16.838;2024-01-30T05:37:59;0.00;99.90
64561;DHT22;50960;46.838;16.838;2024-01-30T05:40:26;-0.10;99.90
64561;DHT22;50960;46.838;16.838;2024-01-30T05:42:53;-0.10;99.90
64561;DHT22;50960;46.838;16.838;2024-01-30T05:45:19;-0.10;99.90
64561;DHT22;50960;46.838;16.838;2024-01-30T05:47:46;-0.10;99.90
64561;DHT22;50960;46.838;16.838;2024-01-30T05:50:12;-0.20;99.90
64561;DHT22;50960;46.838;16.838;2024-01-30T05:52:38;-0.20;99.90
64561;DHT22;50960;46.838;16.838;2024-01-30T05:55:04;-0.20;99.90
64561;DHT22;50960;46.838;16.838;2024-01-30T05:57:31;-0.20;99.90
64561;DHT22;50960;46.838;16.838;2024-01-30T05:59:58;-0.20;99.90
64561;DHT22;50960;46.838;16.838;2024-01-30T06:02:24;-0.20;99.90
64561;DHT22;50960;46.838;16.838;2024-01-30T06:04:50;-0.20;99.90
64561;DHT22;50960;46.838;16.838;2024-01-30T06:07:16;-0.20;99.90
64561;DHT22;50960;46.838;16.838;2024-01-30T06:09:43;-0.30;99.90
64561;DHT22;50960;46.838;16.838;2024-01-30T06:12:10;-0.20;99.90
64561;DHT22;50960;46.838;16.838;2024-01-30T12:06:34;13.30;54.00
64561;DHT22;50960;46.838;16.838;2024-01-30T12:09:02;14.20;51.70
64561;DHT22;50960;46.838;16.838;2024-01-30T12:11:46;15.10;51.10
64561;DHT22;50960;46.838;16.838;2024-01-30T12:16:39;14.80;47.10
64561;DHT22;50960;46.838;16.838;2024-01-30T16:12:09;5.20;95.50
64561;DHT22;50960;46.838;16.838;2024-01-30T16:14:35;5.00;96.10
64561;DHT22;50960;46.838;16.838;2024-01-30T16:17:02;4.90;96.60
64561;DHT22;50960;46.838;16.838;2024-01-30T16:19:28;4.80;96.80
64561;DHT22;50960;46.838;16.838;2024-01-30T16:21:55;4.70;97.10
64561;DHT22;50960;46.838;16.838;2024-01-30T16:24:21;4.60;97.20
64561;DHT22;50960;46.838;16.838;2024-01-30T16:26:49;4.60;97.20
64561;DHT22;50960;46.838;16.838;2024-01-30T16:29:15;4.50;97.50
64561;DHT22;50960;46.838;16.838;2024-01-30T16:31:41;4.50;97.60
64561;DHT22;50960;46.838;16.838;2024-01-30T16:34:08;4.40;97.80
64561;DHT22;50960;46.838;16.838;2024-01-30T16:36:34;4.40;97.90
64561;DHT22;50960;46.838;16.838;2024-01-30T16:39:00;4.30;98.40
64561;DHT22;50960;46.838;16.838;2024-01-30T16:41:29;4.30;98.70
64561;DHT22;50960;46.838;16.838;2024-01-30T16:43:55;4.20;98.70
64561;DHT22;50960;46.838;16.838;2024-01-30T16:46:22;4.20;98.90
64561;DHT22;50960;46.838;16.838;2024-01-30T16:48:49;4.00;99.10
64561;DHT22;50960;46.838;16.838;2024-01-30T16:51:16;3.90;99.90
64561;DHT22;50960;46.838;16.838;2024-01-30T16:53:43;3.70;99.90
64561;DHT22;50960;46.838;16.838;2024-01-30T16:56:10;3.70;99.90
64561;DHT22;50960;46.838;16.838;2024-01-30T16:58:36;3.60;99.90
64561;DHT22;50960;46.838;16.838;2024-01-30T17:01:02;3.50;99.90
64561;DHT22;50960;46.838;16.838;2024-01-30T17:03:29;3.40;99.90
64561;DHT22;50960;46.838;16.838;2024-01-30T17:05:55;3.40;99.90
64561;DHT22;50960;46.838;16.838;2024-01-30T17:08:24;3.30;99.90
64561;DHT22;50960;46.838;16.838;2024-01-30T17:10:51;3.20;99.90
64561;DHT22;50960;46.838;16.838;2024-01-30T17:13:18;3.20;99.90
64561;DHT22;50960;46.838;16.838;2024-01-30T17:15:47;3.20;99.90
64561;DHT22;50960;46.838;16.838;2024-01-30T17:18:13;3.30;99.90
64561;DHT22;50960;46.838;16.838;2024-01-30T17:20:40;3.30;99.90
64561;DHT22;50960;46.838;16.838;2024-01-30T17:23:06;3.30;99.90
64561;DHT22;50960;46.838;16.838;2024-01-30T17:25:34;3.40;99.90
64561;DHT22;50960;46.838;16.838;2024-01-30T17:28:00;3.40;99.90
64561;DHT22;50960;46.838;16.838;2024-01-30T17:30:28;3.30;99.90
64561;DHT22;50960;46.838;16.838;2024-01-30T17:32:54;3.40;99.90
64561;DHT22;50960;46.838;16.838;2024-01-30T17:35:20;3.10;99.90
64561;DHT22;50960;46.838;16.838;2024-01-30T17:37:47;2.90;99.90
64561;DHT22;50960;46.838;16.838;2024-01-30T17:40:13;2.80;99.90
64561;DHT22;50960;46.838;16.838;2024-01-30T17:42:39;2.70;99.90
64561;DHT22;50960;46.838;16.838;2024-01-30T17:45:07;2.50;99.90
64561;DHT22;50960;46.838;16.838;2024-01-30T17:47:34;2.40;99.90
64561;DHT22;50960;46.838;16.838;2024-01-30T17:50:00;2.30;99.90
64561;DHT22;50960;46.838;16.838;2024-01-30T17:52:27;2.30;99.90
64561;DHT22;50960;46.838;16.838;2024-01-30T17:54:54;2.20;99.90
64561;DHT22;50960;46.838;16.838;2024-01-30T17:57:21;2.20;99.90
64561;DHT22;50960;46.838;16.838;2024-01-30T17:59:48;2.20;99.90
64561;DHT22;50960;46.838;16.838;2024-01-30T18:02:14;2.10;99.90
64561;DHT22;50960;46.838;16.838;2024-01-30T18:04:41;2.10;99.90
64561;DHT22;50960;46.838;16.838;2024-01-30T18:07:08;2.00;99.90
64561;DHT22;50960;46.838;16.838;2024-01-30T18:09:34;2.00;99.90
64561;DHT22;50960;46.838;16.838;2024-01-30T18:12:00;1.90;99.90
64561;DHT22;50960;46.838;16.838;2024-01-30T18:14:27;1.90;99.90
64561;DHT22;50960;46.838;16.838;2024-01-30T18:16:53;1.80;99.90
64561;DHT22;50960;46.838;16.838;2024-01-30T18:19:19;1.70;99.90
64561;DHT22;50960;46.838;16.838;2024-01-30T18:21:47;1.60;99.90
64561;DHT22;50960;46.838;16.838;2024-01-30T18:24:13;1.60;99.90
64561;DHT22;50960;46.838;16.838;2024-01-30T18:26:39;1.50;99.90
64561;DHT22;50960;46.838;16.838;2024-01-30T18:29:06;1.40;99.90
64561;DHT22;50960;46.838;16.838;2024-01-30T18:31:32;1.40;99.90
64561;DHT22;50960;46.838;16.838;2024-01-30T18:33:58;1.40;99.90
64561;DHT22;50960;46.838;16.838;2024-01-30T18:36:25;1.50;99.90
64561;DHT22;50960;46.838;16.838;2024-01-30T18:38:53;1.40;99.90
64561;DHT22;50960;46.838;16.838;2024-01-30T18:41:20;1.40;99.90
64561;DHT22;50960;46.838;16.838;2024-01-30T18:43:46;1.40;99.90
64561;DHT22;50960;46.838;16.838;2024-01-30T18:46:13;1.30;99.90
64561;DHT22;50960;46.838;16.838;2024-01-30T18:48:39;1.30;99.90
64561;DHT22;50960;46.838;16.838;2024-01-30T18:51:06;1.20;99.90
64561;DHT22;50960;46.838;16.838;2024-01-30T18:53:33;1.20;99.90
64561;DHT22;50960;46.838;16.838;2024-01-30T18:56:00;1.10;99.90
64561;DHT22;50960;46.838;16.838;2024-01-30T18:58:27;1.10;99.90
64561;DHT22;50960;46.838;16.838;2024-01-30T19:00:53;1.00;99.90
64561;DHT22;50960;46.838;16.838;2024-01-30T19:03:20;1.00;99.90
64561;DHT22;50960;46.838;16.838;2024-01-30T19:05:47;1.00;99.90
64561;DHT22;50960;46.838;16.838;2024-01-30T19:08:13;0.90;99.90
64561;DHT22;50960;46.838;16.838;2024-01-30T19:10:41;0.80;99.90
64561;DHT22;50960;46.838;16.838;2024-01-30T19:13:07;0.80;99.90
64561;DHT22;50960;46.838;16.838;2024-01-30T19:15:34;0.80;99.90
64561;DHT22;50960;46.838;16.838;2024-01-30T19:18:01;0.70;99.90
64561;DHT22;50960;46.838;16.838;2024-01-30T19:20:27;0.70;99.90
64561;DHT22;50960;46.838;16.838;2024-01-30T19:22:54;0.70;99.90
64561;DHT22;50960;46.838;16.838;2024-01-30T19:25:20;0.70;99.90
64561;DHT22;50960;46.838;16.838;2024-01-30T19:27:47;0.70;99.90
64561;DHT22;50960;46.838;16.838;2024-01-30T19:30:13;0.70;99.90
64561;DHT22;50960;46.838;16.838;2024-01-30T19:32:41;0.60;99.90
64561;DHT22;50960;46.838;16.838;2024-01-30T19:35:08;0.50;99.90
64561;DHT22;50960;46.838;16.838;2024-01-30T19:37:34;0.40;99.90
64561;DHT22;50960;46.838;16.838;2024-01-30T19:40:02;0.30;99.90
64561;DHT22;50960;46.838;16.838;2024-01-30T19:42:30;0.30;99.90
64561;DHT22;50960;46.838;16.838;2024-01-30T19:44:57;0.30;99.90
64561;DHT22;50960;46.838;16.838;2024-01-30T19:47:24;0.30;99.90
64561;DHT22;50960;46.838;16.838;2024-01-30T19:49:51;0.20;99.90
64561;DHT22;50960;46.838;16.838;2024-01-30T19:52:17;0.20;99.90
64561;DHT22;50960;46.838;16.838;2024-01-30T19:54:43;0.20;99.90
64561;DHT22;50960;46.838;16.838;2024-01-30T19:57:10;0.20;99.90
64561;DHT22;50960;46.838;16.838;2024-01-30T19:59:36;0.20;99.90
64561;DHT22;50960;46.838;16.838;2024-01-30T20:02:03;0.10;99.90
64561;DHT22;50960;46.838;16.838;2024-01-30T20:04:30;0.10;99.90
64561;DHT22;50960;46.838;16.838;2024-01-30T20:06:58;0.10;99.90
64561;DHT22;50960;46.838;16.838;2024-01-30T20:09:25;0.10;99.90
64561;DHT22;50960;46.838;16.838;2024-01-30T20:11:51;0.00;99.90
64561;DHT22;50960;46.838;16.838;2024-01-30T20:14:18;0.00;99.90
64561;DHT22;50960;46.838;16.838;2024-01-30T20:16:44;0.00;99.90
64561;DHT22;50960;46.838;16.838;2024-01-30T20:19:11;0.10;99.90
64561;DHT22;50960;46.838;16.838;2024-01-30T20:21:37;0.30;99.90
64561;DHT22;50960;46.838;16.838;2024-01-30T20:24:04;0.30;99.90
64561;DHT22;50960;46.838;16.838;2024-01-30T20:26:31;0.40;99.90
64561;DHT22;50960;46.838;16.838;2024-01-30T20:28:59;0.40;99.90
64561;DHT22;50960;46.838;16.838;2024-01-30T20:31:26;0.30;99.90
64561;DHT22;50960;46.838;16.838;2024-01-30T20:33:54;0.20;99.90
64561;DHT22;50960;46.838;16.838;2024-01-30T20:36:20;0.20;99.90
64561;DHT22;50960;46.838;16.838;2024-01-30T20:38:46;0.10;99.90
64561;DHT22;50960;46.838;16.838;2024-01-30T20:41:13;0.10;99.90
64561;DHT22;50960;46.838;16.838;2024-01-30T20:43:42;0.10;99.90
64561;DHT22;50960;46.838;16.838;2024-01-30T20:46:09;0.10;99.90
64561;DHT22;50960;46.838;16.838;2024-01-30T20:48:40;0.10;99.90
64561;DHT22;50960;46.838;16.838;2024-01-30T20:51:06;0.10;99.90
64561;DHT22;50960;46.838;16.838;2024-01-30T20:53:33;0.00;99.90
64561;DHT22;50960;46.838;16.838;2024-01-30T20:55:59;0.00;99.90
64561;DHT22;50960;46.838;16.838;2024-01-30T20:58:25;-0.10;99.90
64561;DHT22;50960;46.838;16.838;2024-01-30T21:00:52;-0.10;99.90
64561;DHT22;50960;46.838;16.838;2024-01-30T21:03:19;-0.10;99.90
64561;DHT22;50960;46.838;16.838;2024-01-30T21:05:46;-0.20;99.90
64561;DHT22;50960;46.838;16.838;2024-01-30T21:08:13;-0.20;99.90
64561;DHT22;50960;46.838;16.838;2024-01-30T21:10:40;-0.20;99.90
64561;DHT22;50960;46.838;16.838;2024-01-30T21:13:07;-0.20;99.90
64561;DHT22;50960;46.838;16.838;2024-01-30T21:18:00;-0.20;99.90
64561;DHT22;50960;46.838;16.838;2024-01-30T21:20:33;-0.30;99.90
64561;DHT22;50960;46.838;16.838;2024-01-30T21:22:59;-0.30;99.90
64561;DHT22;50960;46.838;16.838;2024-01-30T21:25:26;-0.20;99.90
64561;DHT22;50960;46.838;16.838;2024-01-30T21:27:57;-0.10;99.90
64561;DHT22;50960;46.838;16.838;2024-01-30T21:30:24;0.10;99.90
64561;DHT22;50960;46.838;16.838;2024-01-30T21:32:52;0.20;99.90
64561;DHT22;50960;46.838;16.838;2024-01-30T21:35:19;0.20;99.90
64561;DHT22;50960;46.838;16.838;2024-01-30T21:37:45;0.10;99.90
64561;DHT22;50960;46.838;16.838;2024-01-30T21:40:12;0.10;99.90
64561;DHT22;50960;46.838;16.838;2024-01-30T21:42:42;0.10;99.90
64561;DHT22;50960;46.838;16.838;2024-01-30T21:45:08;0.30;99.90
64561;DHT22;50960;46.838;16.838;2024-01-30T21:47:35;0.40;99.90
64561;DHT22;50960;46.838;16.838;2024-01-30T21:50:01;0.50;99.90
64561;DHT22;50960;46.838;16.838;2024-01-30T21:52:29;0.60;99.90
64561;DHT22;50960;46.838;16.838;2024-01-30T21:54:56;0.70;99.90
64561;DHT22;50960;46.838;16.838;2024-01-30T21:57:26;0.70;99.90
64561;DHT22;50960;46.838;16.838;2024-01-30T21:59:58;0.80;99.90
64561;DHT22;50960;46.838;16.838;2024-01-30T22:02:24;0.70;99.90
64561;DHT22;50960;46.838;16.838;2024-01-30T22:04:52;0.90;99.90
64561;DHT22;50960;46.838;16.838;2024-01-30T22:07:20;0.80;99.90
64561;DHT22;50960;46.838;16.838;2024-01-30T22:09:47;0.90;99.90
64561;DHT22;50960;46.838;16.838;2024-01-30T22:12:14;1.10;99.90
64561;DHT22;50960;46.838;16.838;2024-01-30T22:14:40;1.00;99.90
64561;DHT22;50960;46.838;16.838;2024-01-30T22:17:07;1.10;99.90
64561;DHT22;50960;46.838;16.838;2024-01-30T22:19:34;1.20;99.90
64561;DHT22;50960;46.838;16.838;2024-01-30T22:22:00;1.20;99.90
64561;DHT22;50960;46.838;16.838;2024-01-30T22:24:26;1.20;99.90
64561;DHT22;50960;46.838;16.838;2024-01-30T22:26:53;1.20;99.90
64561;DHT22;50960;46.838;16.838;2024-01-30T22:29:19;1.30;99.90
64561;DHT22;50960;46.838;16.838;2024-01-30T22:31:45;1.20;99.90
64561;DHT22;50960;46.838;16.838;2024-01-30T22:34:12;1.20;99.90
64561;DHT22;50960;46.838;16.838;2024-01-30T22:36:39;1.20;99.90
64561;DHT22;50960;46.838;16.838;2024-01-30T22:39:06;1.20;99.90
64561;DHT22;50960;46.838;16.838;2024-01-30T22:41:34;1.20;99.90
64561;DHT22;50960;46.838;16.838;2024-01-30T22:44:01;1.20;99.90
64561;DHT22;50960;46.838;16.838;2024-01-30T22:46:27;1.20;99.90
64561;DHT22;50960;46.838;16.838;2024-01-30T22:48:53;1.20;99.90
64561;DHT22;50960;46.838;16.838;2024-01-30T22:51:20;1.20;99.90
64561;DHT22;50960;46.838;16.838;2024-01-30T22:53:46;1.10;99.90
64561;DHT22;50960;46.838;16.838;2024-01-30T22:56:15;1.10;99.90
64561;DHT22;50960;46.838;16.838;2024-01-30T22:58:42;1.10;99.90
64561;DHT22;50960;46.838;16.838;2024-01-30T23:01:09;1.10;99.90
64561;DHT22;50960;46.838;16.838;2024-01-30T23:03:35;1.10;99.90
64561;DHT22;50960;46.838;16.838;2024-01-30T23:06:01;1.10;99.90
64561;DHT22;50960;46.838;16.838;2024-01-30T23:08:27;1.00;99.90
64561;DHT22;50960;46.838;16.838;2024-01-30T23:10:54;1.00;99.90
64561;DHT22;50960;46.838;16.838;2024-01-30T23:13:20;1.00;99.90
64561;DHT22;50960;46.838;16.838;2024-01-30T23:15:46;1.00;99.90
64561;DHT22;50960;46.838;16.838;2024-01-30T23:18:13;1.00;99.90
64561;DHT22;50960;46.838;16.838;2024-01-30T23:20:40;1.00;99.90
64561;DHT22;50960;46.838;16.838;2024-01-30T23:23:07;0.90;99.90
64561;DHT22;50960;46.838;16.838;2024-01-30T23:25:34;0.90;99.90
64561;DHT22;50960;46.838;16.838;2024-01-30T23:28:01;0.90;99.90
64561;DHT22;50960;46.838;16.838;2024-01-30T23:30:27;0.90;99.90
64561;DHT22;50960;46.838;16.838;2024-01-30T23:32:54;0.80;99.90
64561;DHT22;50960;46.838;16.838;2024-01-30T23:35:20;0.90;99.90
64561;DHT22;50960;46.838;16.838;2024-01-30T23:37:46;0.90;99.90
64561;DHT22;50960;46.838;16.838;2024-01-30T23:40:13;0.80;99.90
64561;DHT22;50960;46.838;16.838;2024-01-30T23:42:39;0.80;99.90
64561;DHT22;50960;46.838;16.838;2024-01-30T23:45:06;0.80;99.90
64561;DHT22;50960;46.838;16.838;2024-01-30T23:47:32;0.70;99.90
64561;DHT22;50960;46.838;16.838;2024-01-30T23:49:59;0.70;99.90
64561;DHT22;50960;46.838;16.838;2024-01-30T23:52:27;0.60;99.90
64561;DHT22;50960;46.838;16.838;2024-01-30T23:54:53;0.60;99.90
64561;DHT22;50960;46.838;16.838;2024-01-30T23:57:19;0.60;99.90
64561;DHT22;50960;46.838;16.838;2024-01-30T23:59:47;0.60;99.90
